createdAt,value
2022-10-11T00:00:36.151Z,11.20
2022-10-11T00:02:07.791Z,11.20
2022-10-11T00:03:39.443Z,11.20
2022-10-11T00:05:11.396Z,11.30
2022-10-11T00:06:43.708Z,11.20
2022-10-11T00:08:15.434Z,11.20
2022-10-11T00:09:47.219Z,11.20
2022-10-11T00:11:18.852Z,11.20
2022-10-11T00:12:52.484Z,11.20
2022-10-11T00:14:26.023Z,11.10
2022-10-11T00:15:57.831Z,11.10
2022-10-11T00:17:29.868Z,11.10
2022-10-11T00:19:01.531Z,11.00
2022-10-11T00:20:33.203Z,11.00
2022-10-11T00:22:04.883Z,11.00
2022-10-11T00:23:37.056Z,11.00
2022-10-11T00:25:10.313Z,10.90
2022-10-11T00:26:46.381Z,10.90
2022-10-11T00:28:18.721Z,10.90
2022-10-11T00:29:50.451Z,10.80
2022-10-11T00:31:22.245Z,10.80
2022-10-11T00:32:53.952Z,10.80
2022-10-11T00:34:25.648Z,10.90
2022-10-11T00:35:59.733Z,10.80
2022-10-11T00:37:36.191Z,10.80
2022-10-11T00:39:07.876Z,10.80
2022-10-11T00:40:39.544Z,10.80
2022-10-11T00:42:19.960Z,10.80
2022-10-11T00:44:24.065Z,10.80
2022-10-11T00:45:55.632Z,10.80
2022-10-11T00:47:27.291Z,10.70
2022-10-11T00:49:13.419Z,10.70
2022-10-11T00:50:45.143Z,10.80
2022-10-11T00:52:31.499Z,10.70
2022-10-11T00:54:04.201Z,10.70
2022-10-11T00:55:46.801Z,10.70
2022-10-11T00:57:22.125Z,10.60
2022-10-11T00:58:56.017Z,10.60
2022-10-11T01:00:27.740Z,10.60
2022-10-11T01:01:59.389Z,10.60
2022-10-11T01:03:32.884Z,10.60
2022-10-11T01:05:28.121Z,10.60
2022-10-11T01:06:58.620Z,10.50
2022-10-11T01:08:31.312Z,10.50
2022-10-11T01:10:03.701Z,10.50
2022-10-11T01:11:37.713Z,10.50
2022-10-11T01:13:47.293Z,10.50
2022-10-11T01:15:32.002Z,10.50
2022-10-11T01:17:18.713Z,10.40
2022-10-11T01:19:30.559Z,10.40
2022-10-11T01:21:15.089Z,10.40
2022-10-11T01:23:26.977Z,10.30
2022-10-11T01:25:26.895Z,10.40
2022-10-11T01:27:27.901Z,10.30
2022-10-11T01:29:21.353Z,10.30
2022-10-11T01:30:57.741Z,10.30
2022-10-11T01:32:47.458Z,10.30
2022-10-11T01:34:45.363Z,10.30
2022-10-11T01:36:33.302Z,10.30
2022-10-11T01:38:17.890Z,10.30
2022-10-11T01:39:55.870Z,10.30
2022-10-11T01:41:33.741Z,10.20
2022-10-11T01:43:06.199Z,10.20
2022-10-11T01:44:41.392Z,10.20
2022-10-11T01:46:13.501Z,10.20
2022-10-11T01:47:45.867Z,10.20
2022-10-11T01:49:18.133Z,10.20
2022-10-11T01:51:03.090Z,10.20
2022-10-11T01:52:39.538Z,10.10
2022-10-11T01:54:22.114Z,10.10
2022-10-11T01:56:22.582Z,10.10
2022-10-11T01:57:59.773Z,10.10
2022-10-11T02:00:01.438Z,10.10
2022-10-11T02:01:50.400Z,10.00
2022-10-11T02:03:28.146Z,10.00
2022-10-11T02:05:14.151Z,10.00
2022-10-11T02:07:01.223Z,10.00
2022-10-11T02:08:52.689Z,10.00
2022-10-11T02:10:47.147Z,10.00
2022-10-11T02:12:27.412Z,10.00
2022-10-11T02:14:13.226Z,9.90
2022-10-11T02:15:47.307Z,9.90
2022-10-11T02:17:22.556Z,9.90
2022-10-11T02:18:56.688Z,9.90
2022-10-11T02:20:32.651Z,9.90
2022-10-11T02:22:28.063Z,9.90
2022-10-11T02:24:15.935Z,9.80
2022-10-11T02:25:49.083Z,9.80
2022-10-11T02:27:24.911Z,9.80
2022-10-11T02:29:01.032Z,9.80
2022-10-11T02:30:33.968Z,9.80
2022-10-11T02:32:06.675Z,9.80
2022-10-11T02:33:56.701Z,9.80
2022-10-11T02:35:29.381Z,9.70
2022-10-11T02:37:18.568Z,9.70
2022-10-11T02:38:55.340Z,9.70
2022-10-11T02:40:33.630Z,9.70
2022-10-11T02:42:09.488Z,9.70
2022-10-11T02:43:48.356Z,9.70
2022-10-11T02:45:41.075Z,9.60
2022-10-11T02:47:13.904Z,9.60
2022-10-11T02:48:45.576Z,9.60
2022-10-11T02:50:17.470Z,9.60
2022-10-11T02:51:49.139Z,9.60
2022-10-11T02:53:22.067Z,9.60
2022-10-11T02:54:53.755Z,9.60
2022-10-11T02:56:25.493Z,9.60
2022-10-11T02:57:57.140Z,9.60
2022-10-11T02:59:28.814Z,9.60
2022-10-11T03:01:00.483Z,9.60
2022-10-11T03:02:32.099Z,9.50
2022-10-11T03:04:03.764Z,9.50
2022-10-11T03:05:40.508Z,9.50
2022-10-11T03:07:12.209Z,9.50
2022-10-11T03:08:43.868Z,9.50
2022-10-11T03:10:15.651Z,9.50
2022-10-11T03:11:47.310Z,9.50
2022-10-11T03:13:19.049Z,9.50
2022-10-11T03:14:50.655Z,9.50
2022-10-11T03:16:22.328Z,9.50
2022-10-11T03:17:54.357Z,9.40
2022-10-11T03:19:26.262Z,9.40
2022-10-11T03:20:57.962Z,9.40
2022-10-11T03:22:29.590Z,9.40
2022-10-11T03:24:01.226Z,9.40
2022-10-11T03:25:32.866Z,9.40
2022-10-11T03:27:04.542Z,9.40
2022-10-11T03:28:36.389Z,9.40
2022-10-11T03:30:13.348Z,9.40
2022-10-11T03:31:47.864Z,9.40
2022-10-11T03:33:19.866Z,9.40
2022-10-11T03:34:51.531Z,9.30
2022-10-11T03:36:23.151Z,9.40
2022-10-11T03:37:54.826Z,9.30
2022-10-11T03:39:26.506Z,9.30
2022-10-11T03:40:58.154Z,9.30
2022-10-11T03:42:29.833Z,9.30
2022-10-11T03:44:01.466Z,9.30
2022-10-11T03:45:33.090Z,9.30
2022-10-11T03:47:05.434Z,9.30
2022-10-11T03:48:37.068Z,9.30
2022-10-11T03:50:09.499Z,9.30
2022-10-11T03:51:41.122Z,9.30
2022-10-11T03:53:12.830Z,9.20
2022-10-11T03:54:44.642Z,9.20
2022-10-11T03:56:16.678Z,9.20
2022-10-11T03:57:48.388Z,9.20
2022-10-11T03:59:20.077Z,9.20
2022-10-11T04:00:53.710Z,9.20
2022-10-11T04:02:25.447Z,9.10
2022-10-11T04:03:57.487Z,9.10
2022-10-11T04:05:29.530Z,9.10
2022-10-11T04:07:01.177Z,9.10
2022-10-11T04:08:32.820Z,9.10
2022-10-11T04:10:05.383Z,9.10
2022-10-11T04:11:37.047Z,9.00
2022-10-11T04:13:11.011Z,9.00
2022-10-11T04:14:42.610Z,9.00
2022-10-11T04:16:14.243Z,9.00
2022-10-11T04:17:45.926Z,9.00
2022-10-11T04:19:17.575Z,9.00
2022-10-11T04:20:49.660Z,8.90
2022-10-11T04:22:21.303Z,8.90
2022-10-11T04:23:52.952Z,8.90
2022-10-11T04:25:24.923Z,8.90
2022-10-11T04:26:56.945Z,8.90
2022-10-11T04:28:28.601Z,8.90
2022-10-11T04:30:00.361Z,8.80
2022-10-11T04:31:32.156Z,8.80
2022-10-11T04:33:03.841Z,8.80
2022-10-11T04:34:35.527Z,8.80
2022-10-11T04:36:08.537Z,8.80
2022-10-11T04:37:40.428Z,8.80
2022-10-11T04:39:12.863Z,8.80
2022-10-11T04:40:44.503Z,8.70
2022-10-11T04:42:16.364Z,8.70
2022-10-11T04:43:48.183Z,8.70
2022-10-11T04:45:21.024Z,8.70
2022-10-11T04:46:52.965Z,8.70
2022-10-11T04:48:24.646Z,8.70
2022-10-11T04:49:56.344Z,8.70
2022-10-11T04:51:28.676Z,8.70
2022-10-11T04:53:00.437Z,8.60
2022-10-11T04:54:32.143Z,8.60
2022-10-11T04:56:07.729Z,8.70
2022-10-11T04:57:39.700Z,8.60
2022-10-11T04:59:11.684Z,8.60
2022-10-11T05:00:43.329Z,8.60
2022-10-11T05:02:15.000Z,8.50
2022-10-11T05:03:46.964Z,8.50
2022-10-11T05:05:18.621Z,8.60
2022-10-11T05:06:50.293Z,8.50
2022-10-11T05:08:25.078Z,8.50
2022-10-11T05:09:56.696Z,8.50
2022-10-11T05:11:28.560Z,8.50
2022-10-11T05:13:00.224Z,8.50
2022-10-11T05:14:31.905Z,8.40
2022-10-11T05:16:09.552Z,8.50
2022-10-11T05:17:42.380Z,8.40
2022-10-11T05:19:17.405Z,8.40
2022-10-11T05:20:49.069Z,8.40
2022-10-11T05:22:20.743Z,8.40
2022-10-11T05:23:55.718Z,8.40
2022-10-11T05:25:27.338Z,8.40
2022-10-11T05:27:03.166Z,8.30
2022-10-11T05:28:35.801Z,8.30
2022-10-11T05:30:08.206Z,8.30
2022-10-11T05:31:39.825Z,8.30
2022-10-11T05:33:11.445Z,8.30
2022-10-11T05:34:43.119Z,8.40
2022-10-11T05:36:14.872Z,8.30
2022-10-11T05:37:46.754Z,8.30
2022-10-11T05:39:18.456Z,8.30
2022-10-11T05:40:50.372Z,8.30
2022-10-11T05:42:21.962Z,8.30
2022-10-11T05:43:53.569Z,8.30
2022-10-11T05:45:25.329Z,8.20
2022-10-11T05:46:56.948Z,8.20
2022-10-11T05:48:28.788Z,8.20
2022-10-11T05:50:00.384Z,8.20
2022-10-11T05:51:31.997Z,8.20
2022-10-11T05:53:04.408Z,8.20
2022-10-11T05:54:36.051Z,8.20
2022-10-11T05:56:24.706Z,8.20
2022-10-11T05:57:57.389Z,8.10
2022-10-11T05:59:29.043Z,8.20
2022-10-11T06:01:00.806Z,8.10
2022-10-11T06:02:34.723Z,8.10
2022-10-11T06:04:06.637Z,8.10
2022-10-11T06:05:38.349Z,8.10
2022-10-11T06:07:09.966Z,8.10
2022-10-11T06:08:41.717Z,8.20
2022-10-11T06:10:13.514Z,8.10
2022-10-11T06:11:45.444Z,8.10
2022-10-11T06:13:17.182Z,8.10
2022-10-11T06:14:48.982Z,8.10
2022-10-11T06:16:20.770Z,8.10
2022-10-11T06:17:53.013Z,8.10
2022-10-11T06:19:24.729Z,8.10
2022-10-11T06:20:58.083Z,8.10
2022-10-11T06:22:29.743Z,8.10
2022-10-11T06:24:02.484Z,8.10
2022-10-11T06:25:34.128Z,8.10
2022-10-11T06:27:05.786Z,8.10
2022-10-11T06:28:38.091Z,8.10
2022-10-11T06:30:10.380Z,8.10
2022-10-11T06:31:42.044Z,8.10
2022-10-11T06:33:13.683Z,8.10
2022-10-11T06:34:45.394Z,8.20
2022-10-11T06:36:18.523Z,8.20
2022-10-11T06:37:51.233Z,8.20
2022-10-11T06:39:22.892Z,8.20
2022-10-11T06:40:54.540Z,8.20
2022-10-11T06:42:26.244Z,8.20
2022-10-11T06:43:58.025Z,8.20
2022-10-11T06:45:29.814Z,8.20
2022-10-11T06:47:01.483Z,8.20
2022-10-11T06:48:33.223Z,8.30
2022-10-11T06:50:06.166Z,8.30
2022-10-11T06:51:37.820Z,8.30
2022-10-11T06:53:09.576Z,8.30
2022-10-11T06:54:44.755Z,8.30
2022-10-11T06:56:16.779Z,8.30
2022-10-11T06:57:48.453Z,8.40
2022-10-11T06:59:20.089Z,8.40
2022-10-11T07:00:51.801Z,8.40
2022-10-11T07:02:23.508Z,8.50
2022-10-11T07:03:57.131Z,8.50
2022-10-11T07:05:31.544Z,8.50
2022-10-11T07:07:03.194Z,8.50
2022-10-11T07:08:35.324Z,8.50
2022-10-11T07:10:07.492Z,8.60
2022-10-11T07:11:39.170Z,8.60
2022-10-11T07:13:16.271Z,8.70
2022-10-11T07:14:48.789Z,8.70
2022-10-11T07:16:21.122Z,8.70
2022-10-11T07:17:52.756Z,8.80
2022-10-11T07:19:24.408Z,8.80
2022-10-11T07:20:56.105Z,8.90
2022-10-11T07:22:27.738Z,8.90
2022-10-11T07:23:59.638Z,8.90
2022-10-11T07:25:31.286Z,8.90
2022-10-11T07:27:03.148Z,9.00
2022-10-11T07:28:36.148Z,9.00
2022-10-11T07:30:08.285Z,9.00
2022-10-11T07:31:41.806Z,9.00
2022-10-11T07:33:13.640Z,9.10
2022-10-11T07:34:45.345Z,9.10
2022-10-11T07:36:17.217Z,9.10
2022-10-11T07:37:49.140Z,9.10
2022-10-11T07:39:20.866Z,9.20
2022-10-11T07:40:52.551Z,9.20
2022-10-11T07:42:24.194Z,9.20
2022-10-11T07:43:55.945Z,9.20
2022-10-11T07:45:28.948Z,9.30
2022-10-11T07:47:00.595Z,9.30
2022-10-11T07:48:34.474Z,9.30
2022-10-11T07:50:07.116Z,9.30
2022-10-11T07:51:38.830Z,9.30
2022-10-11T07:53:10.477Z,9.40
2022-10-11T07:54:42.093Z,9.40
2022-10-11T07:56:16.439Z,9.40
2022-10-11T07:57:48.075Z,9.40
2022-10-11T07:59:19.741Z,9.40
2022-10-11T08:00:54.543Z,9.40
2022-10-11T08:02:26.198Z,9.40
2022-10-11T08:03:58.194Z,9.50
2022-10-11T08:05:29.938Z,9.50
2022-10-11T08:07:01.589Z,9.50
2022-10-11T08:08:33.281Z,9.50
2022-10-11T08:10:06.563Z,9.50
2022-10-11T08:11:39.000Z,9.50
2022-10-11T08:13:10.775Z,9.50
2022-10-11T08:14:42.479Z,9.50
2022-10-11T08:16:14.770Z,9.50
2022-10-11T08:17:46.963Z,9.60
2022-10-11T08:19:18.830Z,9.60
2022-10-11T08:20:50.516Z,9.60
2022-10-11T08:22:22.283Z,9.60
2022-10-11T08:23:53.962Z,9.60
2022-10-11T08:25:25.609Z,9.60
2022-10-11T08:26:57.273Z,9.70
2022-10-11T08:28:28.972Z,9.70
2022-10-11T08:30:00.648Z,9.80
2022-10-11T08:31:34.071Z,9.80
2022-10-11T08:33:08.566Z,9.80
2022-10-11T08:34:40.467Z,9.80
2022-10-11T08:36:13.302Z,9.80
2022-10-11T08:37:44.913Z,9.80
2022-10-11T08:39:16.669Z,9.90
2022-10-11T08:40:56.792Z,9.90
2022-10-11T08:42:36.401Z,9.90
2022-10-11T08:44:17.501Z,10.00
2022-10-11T08:45:53.154Z,10.10
2022-10-11T08:47:30.450Z,10.00
2022-10-11T08:49:02.569Z,10.10
2022-10-11T08:50:34.906Z,10.10
2022-10-11T08:52:14.766Z,10.10
2022-10-11T08:53:59.854Z,10.10
2022-10-11T08:55:50.875Z,10.20
2022-10-11T08:57:26.607Z,10.30
2022-10-11T08:59:08.432Z,10.30
2022-10-11T09:00:43.999Z,10.40
2022-10-11T09:02:55.707Z,10.40
2022-10-11T09:04:26.061Z,10.40
2022-10-11T09:06:03.649Z,10.50
2022-10-11T09:08:01.246Z,10.50
2022-10-11T09:10:01.786Z,10.50
2022-10-11T09:12:10.942Z,10.60
2022-10-11T09:13:54.822Z,10.80
2022-10-11T09:15:41.964Z,10.80
2022-10-11T09:17:40.050Z,10.80
2022-10-11T09:19:49.307Z,10.80
2022-10-11T09:21:32.895Z,10.90
2022-10-11T09:23:26.690Z,11.00
2022-10-11T09:25:11.436Z,11.00
2022-10-11T09:26:56.417Z,10.90
2022-10-11T09:29:11.438Z,11.00
2022-10-11T09:30:52.624Z,11.00
2022-10-11T09:32:35.567Z,11.10
2022-10-11T09:34:16.348Z,11.10
2022-10-11T09:35:50.707Z,11.10
2022-10-11T09:37:41.883Z,11.10
2022-10-11T09:39:25.798Z,11.20
2022-10-11T09:41:08.238Z,11.20
2022-10-11T09:42:39.843Z,11.30
2022-10-11T09:44:26.315Z,11.30
2022-10-11T09:45:57.952Z,11.30
2022-10-11T09:47:32.840Z,11.40
2022-10-11T09:49:09.608Z,11.50
2022-10-11T09:50:41.703Z,11.40
2022-10-11T09:52:19.087Z,11.50
2022-10-11T09:53:54.107Z,11.50
2022-10-11T09:55:43.700Z,11.50
2022-10-11T09:57:33.538Z,11.50
2022-10-11T09:59:35.564Z,11.50
2022-10-11T10:01:09.673Z,11.50
2022-10-11T10:02:47.304Z,11.50
2022-10-11T10:04:19.011Z,11.60
2022-10-11T10:06:05.256Z,11.60
2022-10-11T10:07:40.345Z,11.60
2022-10-11T10:09:30.172Z,11.60
2022-10-11T10:11:05.033Z,11.70
2022-10-11T10:12:36.809Z,11.70
2022-10-11T10:14:26.991Z,11.70
2022-10-11T10:15:59.164Z,11.80
2022-10-11T10:17:31.487Z,11.80
2022-10-11T10:19:21.698Z,11.80
2022-10-11T10:20:56.077Z,11.80
2022-10-11T10:22:30.843Z,11.80
2022-10-11T10:24:08.033Z,11.80
2022-10-11T10:25:43.595Z,11.90
2022-10-11T10:27:22.057Z,12.00
2022-10-11T10:29:08.782Z,12.00
2022-10-11T10:30:55.126Z,12.00
2022-10-11T10:32:32.326Z,12.10
2022-10-11T10:34:14.562Z,12.10
2022-10-11T10:35:48.790Z,12.10
2022-10-11T10:37:28.783Z,12.10
2022-10-11T10:39:10.094Z,12.10
2022-10-11T10:40:51.865Z,12.10
2022-10-11T10:42:23.509Z,12.10
2022-10-11T10:44:03.697Z,12.10
2022-10-11T10:45:59.655Z,12.10
2022-10-11T10:47:46.867Z,12.20
2022-10-11T10:51:53.337Z,12.30
2022-10-11T10:53:32.929Z,12.20
2022-10-11T10:55:25.961Z,12.30
2022-10-11T10:57:08.670Z,12.30
2022-10-11T10:58:49.851Z,12.30
2022-10-11T11:00:23.398Z,12.30
2022-10-11T11:02:38.855Z,12.40
2022-10-11T11:04:31.930Z,12.40
2022-10-11T11:06:12.031Z,12.40
2022-10-11T11:07:53.016Z,12.40
2022-10-11T11:09:45.524Z,12.40
2022-10-11T11:11:39.665Z,12.30
2022-10-11T11:14:00.355Z,12.30
2022-10-11T11:15:50.795Z,12.40
2022-10-11T11:17:29.738Z,12.50
2022-10-11T11:19:13.362Z,12.50
2022-10-11T11:21:09.478Z,12.50
2022-10-11T11:23:04.292Z,12.50
2022-10-11T11:25:08.603Z,12.50
2022-10-11T11:26:44.878Z,12.50
2022-10-11T11:28:46.773Z,12.50
2022-10-11T11:30:45.646Z,12.50
2022-10-11T11:32:43.427Z,12.60
2022-10-11T11:34:25.898Z,12.60
2022-10-11T11:36:03.726Z,12.60
2022-10-11T11:37:38.596Z,12.60
2022-10-11T11:39:43.486Z,12.60
2022-10-11T11:41:25.606Z,12.70
2022-10-11T11:43:02.183Z,12.60
2022-10-11T11:44:40.021Z,12.70
2022-10-11T11:46:26.551Z,12.70
2022-10-11T11:48:05.983Z,12.80
2022-10-11T11:50:06.242Z,12.70
2022-10-11T11:51:45.043Z,12.70
2022-10-11T11:53:29.558Z,12.70
2022-10-11T11:55:36.195Z,12.80
2022-10-11T11:57:15.075Z,12.80
2022-10-11T11:58:59.468Z,12.80
2022-10-11T12:00:41.081Z,12.80
2022-10-11T12:02:36.665Z,12.80
2022-10-11T12:04:23.046Z,12.80
2022-10-11T12:06:19.396Z,12.80
2022-10-11T12:08:01.620Z,12.80
2022-10-11T12:09:34.867Z,12.80
2022-10-11T12:11:07.207Z,12.80
2022-10-11T12:12:39.227Z,12.80
2022-10-11T12:14:27.527Z,12.80
2022-10-11T12:16:13.396Z,12.80
2022-10-11T12:17:57.547Z,12.80
2022-10-11T12:19:29.271Z,12.90
2022-10-11T12:21:05.521Z,12.90
2022-10-11T12:22:56.077Z,12.90
2022-10-11T12:24:57.972Z,12.90
2022-10-11T12:26:29.645Z,12.90
2022-10-11T12:28:21.913Z,12.90
2022-10-11T12:29:54.061Z,12.90
2022-10-11T12:31:29.029Z,12.90
2022-10-11T12:33:35.987Z,12.90
2022-10-11T12:35:33.178Z,12.90
2022-10-11T12:37:33.671Z,12.90
2022-10-11T12:39:20.657Z,12.90
2022-10-11T12:41:16.882Z,12.90
2022-10-11T12:43:22.353Z,12.90
2022-10-11T12:45:23.316Z,12.90
2022-10-11T12:46:54.909Z,13.00
2022-10-11T12:48:57.652Z,13.00
2022-10-11T12:50:44.823Z,12.90
2022-10-11T12:52:16.399Z,12.90
2022-10-11T12:54:27.327Z,12.90
2022-10-11T12:56:26.005Z,12.90
2022-10-11T12:58:26.970Z,12.90
2022-10-11T13:00:33.129Z,12.90
2022-10-11T13:02:24.117Z,12.80
2022-10-11T13:04:06.749Z,12.80
2022-10-11T13:05:49.690Z,12.80
2022-10-11T13:07:24.212Z,12.80
2022-10-11T13:09:05.582Z,12.90
2022-10-11T13:10:43.800Z,12.90
2022-10-11T13:12:19.194Z,12.90
2022-10-11T13:14:00.116Z,12.90
2022-10-11T13:15:32.109Z,12.90
2022-10-11T13:17:06.282Z,12.90
2022-10-11T13:18:43.918Z,12.90
2022-10-11T13:20:15.544Z,13.00
2022-10-11T13:21:52.753Z,12.90
2022-10-11T13:23:26.347Z,12.90
2022-10-11T13:24:58.021Z,13.00
2022-10-11T13:26:31.320Z,13.00
2022-10-11T13:28:03.526Z,13.00
2022-10-11T13:29:40.474Z,13.00
2022-10-11T13:31:12.120Z,13.00
2022-10-11T13:32:44.154Z,13.00
2022-10-11T13:34:19.770Z,13.10
2022-10-11T13:35:54.161Z,13.10
2022-10-11T13:37:28.237Z,13.10
2022-10-11T13:39:01.033Z,13.10
2022-10-11T13:40:33.063Z,13.20
2022-10-11T13:42:08.987Z,13.20
2022-10-11T13:43:41.009Z,13.20
2022-10-11T13:45:14.031Z,13.20
2022-10-11T13:46:46.152Z,13.20
2022-10-11T13:48:18.027Z,13.20
2022-10-11T13:50:18.940Z,13.20
2022-10-11T13:51:59.427Z,13.30
2022-10-11T13:53:31.118Z,13.30
2022-10-11T13:55:09.734Z,13.30
2022-10-11T13:56:49.460Z,13.30
2022-10-11T13:58:38.506Z,13.30
2022-10-11T14:00:34.808Z,13.40
2022-10-11T14:02:20.552Z,13.30
2022-10-11T14:04:06.199Z,13.30
2022-10-11T14:05:41.233Z,13.30
2022-10-11T14:07:27.178Z,13.30
2022-10-11T14:09:02.167Z,13.30
2022-10-11T14:10:34.522Z,13.30
2022-10-11T14:12:43.018Z,13.30
2022-10-11T14:14:32.889Z,13.20
2022-10-11T14:16:18.811Z,13.20
2022-10-11T14:17:51.362Z,13.20
2022-10-11T14:19:23.105Z,13.20
2022-10-11T14:20:54.782Z,13.20
2022-10-11T14:22:26.467Z,13.20
2022-10-11T14:24:10.487Z,13.20
2022-10-11T14:25:42.286Z,13.20
2022-10-11T14:27:23.250Z,13.20
2022-10-11T14:29:14.499Z,13.20
2022-10-11T14:30:46.227Z,13.20
2022-10-11T14:32:22.967Z,13.20
2022-10-11T14:33:55.702Z,13.20
2022-10-11T14:35:32.211Z,13.20
2022-10-11T14:37:03.915Z,13.10
2022-10-11T14:38:35.533Z,13.10
2022-10-11T14:40:16.159Z,13.10
2022-10-11T14:41:48.003Z,13.10
2022-10-11T14:43:19.672Z,13.10
2022-10-11T14:44:52.963Z,13.10
2022-10-11T14:46:27.066Z,13.20
2022-10-11T14:47:58.946Z,13.10
2022-10-11T14:49:32.196Z,13.20
2022-10-11T14:51:05.562Z,13.10
2022-10-11T14:52:37.159Z,13.10
2022-10-11T14:54:09.731Z,13.20
2022-10-11T14:55:42.335Z,13.20
2022-10-11T14:57:14.053Z,13.20
2022-10-11T14:58:45.684Z,13.20
2022-10-11T15:00:24.005Z,13.20
2022-10-11T15:01:55.684Z,13.20
2022-10-11T15:03:27.425Z,13.20
2022-10-11T15:04:59.135Z,13.20
2022-10-11T15:06:34.435Z,13.30
2022-10-11T15:08:07.196Z,13.20
2022-10-11T15:09:39.215Z,13.20
2022-10-11T15:11:12.783Z,13.20
2022-10-11T15:12:44.575Z,13.30
2022-10-11T15:14:16.851Z,13.20
2022-10-11T15:15:48.908Z,13.30
2022-10-11T15:17:21.491Z,13.20
2022-10-11T15:18:53.394Z,13.30
2022-10-11T15:20:40.528Z,13.30
2022-10-11T15:22:12.177Z,13.30
2022-10-11T15:23:43.991Z,13.30
2022-10-11T15:25:16.333Z,13.30
2022-10-11T15:26:49.227Z,13.30
2022-10-11T15:28:25.355Z,13.30
2022-10-11T15:29:57.635Z,13.30
2022-10-11T15:31:30.342Z,13.30
2022-10-11T15:33:03.840Z,13.30
2022-10-11T15:34:36.056Z,13.30
2022-10-11T15:36:13.224Z,13.30
2022-10-11T15:37:46.429Z,13.30
2022-10-11T15:39:34.063Z,13.30
2022-10-11T15:41:06.118Z,13.30
2022-10-11T15:42:37.758Z,13.30
2022-10-11T15:44:09.377Z,13.30
2022-10-11T15:45:41.881Z,13.30
2022-10-11T15:47:14.304Z,13.30
2022-10-11T15:48:46.809Z,13.30
2022-10-11T15:50:34.119Z,13.20
2022-10-11T15:52:05.874Z,13.30
2022-10-11T15:53:37.526Z,13.30
2022-10-11T15:55:09.734Z,13.30
2022-10-11T15:56:41.662Z,13.30
2022-10-11T15:58:44.218Z,13.30
2022-10-11T16:00:19.943Z,13.30
2022-10-11T16:01:53.944Z,13.20
2022-10-11T16:03:28.138Z,13.30
2022-10-11T16:04:59.827Z,13.20
2022-10-11T16:06:33.331Z,13.20
2022-10-11T16:08:05.380Z,13.20
2022-10-11T16:09:37.374Z,13.20
2022-10-11T16:11:09.778Z,13.20
2022-10-11T16:12:41.636Z,13.20
2022-10-11T16:14:13.308Z,13.20
2022-10-11T16:15:46.509Z,13.20
2022-10-11T16:17:18.542Z,13.10
2022-10-11T16:18:52.046Z,13.10
2022-10-11T16:20:25.669Z,13.10
2022-10-11T16:21:57.334Z,13.10
2022-10-11T16:23:29.093Z,13.10
2022-10-11T16:25:02.127Z,13.10
2022-10-11T16:26:33.747Z,13.10
2022-10-11T16:28:07.893Z,13.10
2022-10-11T16:29:39.680Z,13.00
2022-10-11T16:31:20.855Z,13.00
2022-10-11T16:32:52.746Z,13.00
2022-10-11T16:34:24.506Z,13.00
2022-10-11T16:36:16.182Z,12.90
2022-10-11T16:37:48.164Z,12.90
2022-10-11T16:39:20.290Z,12.80
2022-10-11T16:40:51.946Z,12.80
2022-10-11T16:42:23.907Z,12.80
2022-10-11T16:43:55.945Z,12.80
2022-10-11T16:45:27.556Z,12.70
2022-10-11T16:47:00.165Z,12.70
2022-10-11T16:48:31.883Z,12.70
2022-10-11T16:50:04.907Z,12.70
2022-10-11T16:51:36.690Z,12.70
2022-10-11T16:53:08.347Z,12.70
2022-10-11T16:54:44.323Z,12.70
2022-10-11T16:56:16.002Z,12.60
2022-10-11T16:57:47.974Z,12.60
2022-10-11T16:59:19.908Z,12.60
2022-10-11T17:00:51.665Z,12.60
2022-10-11T17:02:29.934Z,12.50
2022-10-11T17:04:04.255Z,12.60
2022-10-11T17:05:36.934Z,12.50
2022-10-11T17:07:14.654Z,12.50
2022-10-11T17:08:46.701Z,12.40
2022-10-11T17:10:19.869Z,12.40
2022-10-11T17:11:52.631Z,12.40
2022-10-11T17:13:24.404Z,12.40
2022-10-11T17:14:56.322Z,12.40
2022-10-11T17:16:28.142Z,12.30
2022-10-11T17:17:59.758Z,12.30
2022-10-11T17:19:31.999Z,12.30
2022-10-11T17:21:09.361Z,12.20
2022-10-11T17:22:40.963Z,12.20
2022-10-11T17:24:12.611Z,12.20
2022-10-11T17:25:46.003Z,12.20
2022-10-11T17:27:17.633Z,12.10
2022-10-11T17:28:49.507Z,12.10
2022-10-11T17:30:21.195Z,12.10
2022-10-11T17:31:53.344Z,12.00
2022-10-11T17:33:28.364Z,12.00
2022-10-11T17:35:01.930Z,12.00
2022-10-11T17:36:34.536Z,12.00
2022-10-11T17:38:06.619Z,12.00
2022-10-11T17:39:38.281Z,11.90
2022-10-11T17:41:10.624Z,11.90
2022-10-11T17:42:42.281Z,11.90
2022-10-11T17:44:17.105Z,11.90
2022-10-11T17:45:55.263Z,11.90
2022-10-11T17:47:26.990Z,11.90
2022-10-11T17:49:00.078Z,11.80
2022-10-11T17:50:32.033Z,11.80
2022-10-11T17:52:03.742Z,11.80
2022-10-11T17:53:35.794Z,11.70
2022-10-11T17:55:07.954Z,11.70
2022-10-11T17:56:41.288Z,11.70
2022-10-11T17:58:15.858Z,11.70
2022-10-11T17:59:48.109Z,11.60
2022-10-11T18:01:23.750Z,11.60
2022-10-11T18:02:57.340Z,11.60
2022-10-11T18:04:30.014Z,11.60
2022-10-11T18:06:10.391Z,11.60
2022-10-11T18:07:42.105Z,11.50
2022-10-11T18:09:15.520Z,11.50
2022-10-11T18:10:49.597Z,11.50
2022-10-11T18:12:21.296Z,11.50
2022-10-11T18:13:53.494Z,11.50
2022-10-11T18:15:25.634Z,11.40
2022-10-11T18:16:57.280Z,11.40
2022-10-11T18:18:29.136Z,11.40
2022-10-11T18:20:00.906Z,11.40
2022-10-11T18:21:34.862Z,11.40
2022-10-11T18:23:06.721Z,11.30
2022-10-11T18:24:39.036Z,11.30
2022-10-11T18:26:15.319Z,11.30
2022-10-11T18:27:46.959Z,11.30
2022-10-11T18:29:18.684Z,11.20
2022-10-11T18:30:50.476Z,11.20
2022-10-11T18:32:22.178Z,11.20
2022-10-11T18:33:56.452Z,11.20
2022-10-11T18:35:28.104Z,11.20
2022-10-11T18:37:00.035Z,11.10
2022-10-11T18:38:32.850Z,11.10
2022-10-11T18:40:04.986Z,11.10
2022-10-11T18:41:39.037Z,11.10
2022-10-11T18:43:10.849Z,11.10
2022-10-11T18:44:42.902Z,11.10
2022-10-11T18:46:14.806Z,11.10
2022-10-11T18:47:46.710Z,11.10
2022-10-11T18:49:18.530Z,11.00
2022-10-11T18:50:50.269Z,11.00
2022-10-11T18:52:21.961Z,11.00
2022-10-11T18:53:54.577Z,11.00
2022-10-11T18:55:26.244Z,10.90
2022-10-11T18:56:58.533Z,10.90
2022-10-11T18:58:35.098Z,10.90
2022-10-11T19:00:16.852Z,10.90
2022-10-11T19:02:01.521Z,10.90
2022-10-11T19:03:35.278Z,10.90
2022-10-11T19:05:07.502Z,10.80
2022-10-11T19:06:42.826Z,10.80
2022-10-11T19:08:14.455Z,10.80
2022-10-11T19:09:46.974Z,10.80
2022-10-11T19:11:25.181Z,10.80
2022-10-11T19:12:57.040Z,10.80
2022-10-11T19:14:30.144Z,10.70
2022-10-11T19:16:13.349Z,10.70
2022-10-11T19:17:45.003Z,10.70
2022-10-11T19:19:18.631Z,10.70
2022-10-11T19:20:50.259Z,10.70
2022-10-11T19:22:21.947Z,10.70
2022-10-11T19:23:56.085Z,10.60
2022-10-11T19:25:27.791Z,10.60
2022-10-11T19:27:02.613Z,10.60
2022-10-11T19:28:34.783Z,10.60
2022-10-11T19:30:08.256Z,10.60
2022-10-11T19:31:48.143Z,10.50
2022-10-11T19:33:19.803Z,10.50
2022-10-11T19:34:51.422Z,10.50
2022-10-11T19:36:23.329Z,10.50
2022-10-11T19:37:54.920Z,10.50
2022-10-11T19:39:28.384Z,10.40
2022-10-11T19:41:01.213Z,10.50
2022-10-11T19:42:33.313Z,10.50
2022-10-11T19:44:05.609Z,10.40
2022-10-11T19:45:37.381Z,10.40
2022-10-11T19:47:09.973Z,10.40
2022-10-11T19:48:46.312Z,10.40
2022-10-11T19:50:18.013Z,10.30
2022-10-11T19:51:49.833Z,10.30
2022-10-11T19:53:21.460Z,10.30
2022-10-11T19:54:53.146Z,10.30
2022-10-11T19:56:26.200Z,10.30
2022-10-11T19:57:57.838Z,10.30
2022-10-11T19:59:29.650Z,10.20
2022-10-11T20:01:09.854Z,10.20
2022-10-11T20:02:41.495Z,10.20
2022-10-11T20:04:33.208Z,10.20
2022-10-11T20:06:07.676Z,10.20
2022-10-11T20:07:39.316Z,10.20
2022-10-11T20:09:28.612Z,10.20
2022-10-11T20:11:06.579Z,10.10
2022-10-11T20:12:42.349Z,10.10
2022-10-11T20:14:17.244Z,10.10
2022-10-11T20:15:48.931Z,10.10
2022-10-11T20:17:20.570Z,10.10
2022-10-11T20:18:54.443Z,10.10
2022-10-11T20:20:26.627Z,10.00
2022-10-11T20:21:58.546Z,10.00
2022-10-11T20:23:32.730Z,10.00
2022-10-11T20:25:04.747Z,10.00
2022-10-11T20:26:36.460Z,10.00
2022-10-11T20:28:08.229Z,9.90
2022-10-11T20:29:39.958Z,9.90
2022-10-11T20:31:18.062Z,9.90
2022-10-11T20:32:49.641Z,9.90
2022-10-11T20:34:21.259Z,9.90
2022-10-11T20:36:04.387Z,9.90
2022-10-11T20:37:36.934Z,9.80
2022-10-11T20:39:09.627Z,9.80
2022-10-11T20:40:41.540Z,9.80
2022-10-11T20:42:13.175Z,9.80
2022-10-11T20:43:46.227Z,9.80
2022-10-11T20:45:17.863Z,9.80
2022-10-11T20:46:49.527Z,9.70
2022-10-11T20:48:21.179Z,9.70
2022-10-11T20:49:52.824Z,9.70
2022-10-11T20:51:24.592Z,9.70
2022-10-11T20:52:56.219Z,9.70
2022-10-11T20:54:29.661Z,9.70
2022-10-11T20:56:01.333Z,9.70
2022-10-11T20:57:33.210Z,9.60
2022-10-11T20:59:06.017Z,9.60
2022-10-11T21:00:39.793Z,9.60